sensor_id;sensor_type;location;lat;lon;timestamp;temperature;humidity
14893;DHT22;7538;53.626;9.906;2023-04-03T00:00:05;1.90;99.90
14893;DHT22;7538;53.626;9.906;2023-04-03T00:02:33;1.90;99.90
14893;DHT22;7538;53.626;9.906;2023-04-03T00:05:00;1.80;99.90
14893;DHT22;7538;53.626;9.906;2023-04-03T00:07:28;1.80;99.90
14893;DHT22;7538;53.626;9.906;2023-04-03T00:09:55;1.80;99.90
14893;DHT22;7538;53.626;9.906;2023-04-03T00:12:22;1.80;99.90
14893;DHT22;7538;53.626;9.906;2023-04-03T00:14:49;1.80;99.90
14893;DHT22;7538;53.626;9.906;2023-04-03T00:17:16;1.80;99.90
14893;DHT22;7538;53.626;9.906;2023-04-03T00:19:42;1.80;99.90
14893;DHT22;7538;53.626;9.906;2023-04-03T00:22:09;3.00;99.90
14893;DHT22;7538;53.626;9.906;2023-04-03T00:24:37;1.70;99.90
14893;DHT22;7538;53.626;9.906;2023-04-03T00:27:04;1.70;99.90
14893;DHT22;7538;53.626;9.906;2023-04-03T00:29:31;1.70;99.90
14893;DHT22;7538;53.626;9.906;2023-04-03T00:31:57;1.70;99.90
14893;DHT22;7538;53.626;9.906;2023-04-03T00:34:24;1.70;99.90
14893;DHT22;7538;53.626;9.906;2023-04-03T00:36:51;1.70;99.90
14893;DHT22;7538;53.626;9.906;2023-04-03T00:39:18;1.70;99.90
14893;DHT22;7538;53.626;9.906;2023-04-03T00:41:46;1.60;99.90
14893;DHT22;7538;53.626;9.906;2023-04-03T00:44:20;1.60;99.90
14893;DHT22;7538;53.626;9.906;2023-04-03T00:46:47;1.60;99.90
14893;DHT22;7538;53.626;9.906;2023-04-03T00:49:14;1.60;99.90
14893;DHT22;7538;53.626;9.906;2023-04-03T00:51:41;1.60;99.90
14893;DHT22;7538;53.626;9.906;2023-04-03T00:54:08;1.50;99.90
14893;DHT22;7538;53.626;9.906;2023-04-03T00:56:36;1.50;99.90
14893;DHT22;7538;53.626;9.906;2023-04-03T00:59:07;1.50;99.90
14893;DHT22;7538;53.626;9.906;2023-04-03T01:01:35;1.50;99.90
14893;DHT22;7538;53.626;9.906;2023-04-03T01:04:03;1.40;99.90
14893;DHT22;7538;53.626;9.906;2023-04-03T01:06:33;1.40;99.90
14893;DHT22;7538;53.626;9.906;2023-04-03T01:09:01;1.40;99.90
14893;DHT22;7538;53.626;9.906;2023-04-03T01:11:28;1.40;99.90
14893;DHT22;7538;53.626;9.906;2023-04-03T01:13:55;1.40;99.90
14893;DHT22;7538;53.626;9.906;2023-04-03T01:16:23;1.30;99.90
14893;DHT22;7538;53.626;9.906;2023-04-03T01:18:50;1.30;99.90
14893;DHT22;7538;53.626;9.906;2023-04-03T01:21:43;1.30;99.90
14893;DHT22;7538;53.626;9.906;2023-04-03T01:24:30;1.30;99.90
14893;DHT22;7538;53.626;9.906;2023-04-03T01:26:58;1.30;99.90
14893;DHT22;7538;53.626;9.906;2023-04-03T01:29:25;1.20;99.90
14893;DHT22;7538;53.626;9.906;2023-04-03T01:31:55;1.20;99.90
14893;DHT22;7538;53.626;9.906;2023-04-03T01:34:23;1.10;99.90
14893;DHT22;7538;53.626;9.906;2023-04-03T01:36:50;1.20;99.90
14893;DHT22;7538;53.626;9.906;2023-04-03T01:39:17;1.10;99.90
14893;DHT22;7538;53.626;9.906;2023-04-03T01:41:44;1.10;99.90
14893;DHT22;7538;53.626;9.906;2023-04-03T01:44:11;1.10;99.90
14893;DHT22;7538;53.626;9.906;2023-04-03T01:46:38;1.10;99.90
14893;DHT22;7538;53.626;9.906;2023-04-03T01:49:08;1.00;99.90
14893;DHT22;7538;53.626;9.906;2023-04-03T01:51:35;1.00;99.90
14893;DHT22;7538;53.626;9.906;2023-04-03T01:54:02;1.00;99.90
14893;DHT22;7538;53.626;9.906;2023-04-03T01:56:28;1.00;99.90
14893;DHT22;7538;53.626;9.906;2023-04-03T01:58:55;0.90;99.90
14893;DHT22;7538;53.626;9.906;2023-04-03T02:01:22;1.00;99.90
14893;DHT22;7538;53.626;9.906;2023-04-03T02:03:49;0.90;99.90
14893;DHT22;7538;53.626;9.906;2023-04-03T02:06:17;0.90;99.90
14893;DHT22;7538;53.626;9.906;2023-04-03T02:08:44;0.90;99.90
14893;DHT22;7538;53.626;9.906;2023-04-03T02:11:11;0.90;99.90
14893;DHT22;7538;53.626;9.906;2023-04-03T02:13:37;0.90;99.90
14893;DHT22;7538;53.626;9.906;2023-04-03T02:16:08;0.80;99.90
14893;DHT22;7538;53.626;9.906;2023-04-03T02:18:36;0.80;99.90
14893;DHT22;7538;53.626;9.906;2023-04-03T02:21:03;0.80;99.90
14893;DHT22;7538;53.626;9.906;2023-04-03T02:23:32;0.80;99.90
14893;DHT22;7538;53.626;9.906;2023-04-03T02:26:09;0.80;99.90
14893;DHT22;7538;53.626;9.906;2023-04-03T02:28:36;0.80;99.90
14893;DHT22;7538;53.626;9.906;2023-04-03T02:31:05;0.80;99.90
14893;DHT22;7538;53.626;9.906;2023-04-03T02:33:33;0.70;99.90
14893;DHT22;7538;53.626;9.906;2023-04-03T02:36:01;0.70;99.90
14893;DHT22;7538;53.626;9.906;2023-04-03T02:38:28;0.70;99.90
14893;DHT22;7538;53.626;9.906;2023-04-03T02:41:01;0.70;99.90
14893;DHT22;7538;53.626;9.906;2023-04-03T02:43:28;0.70;99.90
14893;DHT22;7538;53.626;9.906;2023-04-03T02:45:54;0.60;99.90
14893;DHT22;7538;53.626;9.906;2023-04-03T02:48:21;0.60;99.90
14893;DHT22;7538;53.626;9.906;2023-04-03T02:50:48;0.60;99.90
14893;DHT22;7538;53.626;9.906;2023-04-03T02:53:15;0.60;99.90
14893;DHT22;7538;53.626;9.906;2023-04-03T02:55:42;0.60;99.90
14893;DHT22;7538;53.626;9.906;2023-04-03T02:58:11;0.60;99.90
14893;DHT22;7538;53.626;9.906;2023-04-03T03:00:37;0.60;99.90
14893;DHT22;7538;53.626;9.906;2023-04-03T03:03:04;0.60;99.90
14893;DHT22;7538;53.626;9.906;2023-04-03T03:05:32;0.50;99.90
14893;DHT22;7538;53.626;9.906;2023-04-03T03:07:59;0.50;99.90
14893;DHT22;7538;53.626;9.906;2023-04-03T03:10:25;0.50;99.90
14893;DHT22;7538;53.626;9.906;2023-04-03T03:12:52;0.50;99.90
14893;DHT22;7538;53.626;9.906;2023-04-03T03:15:20;0.40;99.90
14893;DHT22;7538;53.626;9.906;2023-04-03T03:17:47;0.40;99.90
14893;DHT22;7538;53.626;9.906;2023-04-03T03:20:14;0.40;99.90
14893;DHT22;7538;53.626;9.906;2023-04-03T03:22:41;0.40;99.90
14893;DHT22;7538;53.626;9.906;2023-04-03T03:25:08;0.40;99.90
14893;DHT22;7538;53.626;9.906;2023-04-03T03:27:35;-0.60;99.90
14893;DHT22;7538;53.626;9.906;2023-04-03T03:30:03;0.30;99.90
14893;DHT22;7538;53.626;9.906;2023-04-03T03:32:31;0.30;99.90
14893;DHT22;7538;53.626;9.906;2023-04-03T03:34:58;0.30;99.90
14893;DHT22;7538;53.626;9.906;2023-04-03T03:37:25;0.30;99.90
14893;DHT22;7538;53.626;9.906;2023-04-03T03:39:52;0.30;99.90
14893;DHT22;7538;53.626;9.906;2023-04-03T03:42:19;0.30;99.90
14893;DHT22;7538;53.626;9.906;2023-04-03T03:44:46;0.30;99.90
14893;DHT22;7538;53.626;9.906;2023-04-03T03:47:12;0.30;99.90
14893;DHT22;7538;53.626;9.906;2023-04-03T03:49:40;0.30;99.90
14893;DHT22;7538;53.626;9.906;2023-04-03T03:52:07;0.20;99.90
14893;DHT22;7538;53.626;9.906;2023-04-03T03:54:36;0.20;99.90
14893;DHT22;7538;53.626;9.906;2023-04-03T03:57:03;0.20;99.90
14893;DHT22;7538;53.626;9.906;2023-04-03T03:59:30;0.20;99.90
14893;DHT22;7538;53.626;9.906;2023-04-03T04:01:56;0.20;99.90
14893;DHT22;7538;53.626;9.906;2023-04-03T04:04:23;0.20;99.90
14893;DHT22;7538;53.626;9.906;2023-04-03T04:06:51;0.20;99.90
14893;DHT22;7538;53.626;9.906;2023-04-03T04:09:18;0.20;99.90
14893;DHT22;7538;53.626;9.906;2023-04-03T04:11:45;0.20;99.90
14893;DHT22;7538;53.626;9.906;2023-04-03T04:14:12;0.20;99.90
14893;DHT22;7538;53.626;9.906;2023-04-03T04:16:39;0.20;99.90
14893;DHT22;7538;53.626;9.906;2023-04-03T04:19:06;0.20;99.90
14893;DHT22;7538;53.626;9.906;2023-04-03T04:21:33;0.20;99.90
14893;DHT22;7538;53.626;9.906;2023-04-03T04:24:01;0.20;99.90
14893;DHT22;7538;53.626;9.906;2023-04-03T04:26:28;0.20;99.90
14893;DHT22;7538;53.626;9.906;2023-04-03T04:28:55;0.20;99.90
14893;DHT22;7538;53.626;9.906;2023-04-03T04:31:22;0.10;99.90
14893;DHT22;7538;53.626;9.906;2023-04-03T04:33:48;0.10;99.90
14893;DHT22;7538;53.626;9.906;2023-04-03T04:36:15;0.10;99.90
14893;DHT22;7538;53.626;9.906;2023-04-03T04:38:42;0.20;99.90
14893;DHT22;7538;53.626;9.906;2023-04-03T04:41:10;0.10;99.90
14893;DHT22;7538;53.626;9.906;2023-04-03T04:43:37;0.10;99.90
14893;DHT22;7538;53.626;9.906;2023-04-03T04:46:05;0.10;99.90
14893;DHT22;7538;53.626;9.906;2023-04-03T04:48:33;0.10;99.90
14893;DHT22;7538;53.626;9.906;2023-04-03T04:51:00;0.10;99.90
14893;DHT22;7538;53.626;9.906;2023-04-03T04:53:27;0.10;99.90
14893;DHT22;7538;53.626;9.906;2023-04-03T04:55:54;0.10;99.90
14893;DHT22;7538;53.626;9.906;2023-04-03T04:58:22;0.10;99.90
14893;DHT22;7538;53.626;9.906;2023-04-03T05:00:49;0.10;99.90
14893;DHT22;7538;53.626;9.906;2023-04-03T05:03:15;0.20;99.90
14893;DHT22;7538;53.626;9.906;2023-04-03T05:05:42;0.20;99.90
14893;DHT22;7538;53.626;9.906;2023-04-03T05:08:09;0.20;99.90
14893;DHT22;7538;53.626;9.906;2023-04-03T05:10:36;0.20;99.90
14893;DHT22;7538;53.626;9.906;2023-04-03T05:13:02;0.20;99.90
14893;DHT22;7538;53.626;9.906;2023-04-03T05:15:31;0.20;99.90
14893;DHT22;7538;53.626;9.906;2023-04-03T05:17:57;0.20;99.90
14893;DHT22;7538;53.626;9.906;2023-04-03T05:20:24;0.30;99.90
14893;DHT22;7538;53.626;9.906;2023-04-03T05:22:51;0.30;99.90
14893;DHT22;7538;53.626;9.906;2023-04-03T05:25:18;0.30;99.90
14893;DHT22;7538;53.626;9.906;2023-04-03T05:27:45;0.40;99.90
14893;DHT22;7538;53.626;9.906;2023-04-03T05:30:12;0.40;99.90
14893;DHT22;7538;53.626;9.906;2023-04-03T05:32:40;0.50;99.90
14893;DHT22;7538;53.626;9.906;2023-04-03T05:35:08;0.50;99.90
14893;DHT22;7538;53.626;9.906;2023-04-03T05:37:35;0.60;99.90
14893;DHT22;7538;53.626;9.906;2023-04-03T05:40:03;0.60;99.90
14893;DHT22;7538;53.626;9.906;2023-04-03T05:42:30;0.70;99.90
14893;DHT22;7538;53.626;9.906;2023-04-03T05:44:57;0.80;99.90
14893;DHT22;7538;53.626;9.906;2023-04-03T05:47:24;0.90;99.90
14893;DHT22;7538;53.626;9.906;2023-04-03T05:49:52;1.20;99.90
14893;DHT22;7538;53.626;9.906;2023-04-03T05:52:22;1.50;99.90
14893;DHT22;7538;53.626;9.906;2023-04-03T05:54:49;1.90;99.90
14893;DHT22;7538;53.626;9.906;2023-04-03T05:57:16;2.50;99.90
14893;DHT22;7538;53.626;9.906;2023-04-03T05:59:43;3.20;99.90
14893;DHT22;7538;53.626;9.906;2023-04-03T06:02:11;3.90;99.90
14893;DHT22;7538;53.626;9.906;2023-04-03T06:04:38;4.70;99.90
14893;DHT22;7538;53.626;9.906;2023-04-03T06:07:10;5.60;99.90
14893;DHT22;7538;53.626;9.906;2023-04-03T06:09:38;6.50;99.90
14893;DHT22;7538;53.626;9.906;2023-04-03T06:12:05;7.60;99.90
14893;DHT22;7538;53.626;9.906;2023-04-03T06:14:32;8.60;99.90
14893;DHT22;7538;53.626;9.906;2023-04-03T06:16:58;7.50;99.90
14893;DHT22;7538;53.626;9.906;2023-04-03T06:19:25;11.10;96.90
14893;DHT22;7538;53.626;9.906;2023-04-03T06:21:52;12.50;92.50
14893;DHT22;7538;53.626;9.906;2023-04-03T06:24:20;13.70;89.30
14893;DHT22;7538;53.626;9.906;2023-04-03T06:26:49;14.80;84.70
14893;DHT22;7538;53.626;9.906;2023-04-03T06:29:17;15.70;77.30
14893;DHT22;7538;53.626;9.906;2023-04-03T06:31:44;16.60;74.30
14893;DHT22;7538;53.626;9.906;2023-04-03T06:34:10;17.40;68.70
14893;DHT22;7538;53.626;9.906;2023-04-03T06:36:38;17.90;65.20
14893;DHT22;7538;53.626;9.906;2023-04-03T06:39:05;18.60;63.80
14893;DHT22;7538;53.626;9.906;2023-04-03T06:41:34;19.40;61.80
14893;DHT22;7538;53.626;9.906;2023-04-03T06:44:00;20.20;59.00
14893;DHT22;7538;53.626;9.906;2023-04-03T06:46:28;20.80;55.30
14893;DHT22;7538;53.626;9.906;2023-04-03T06:48:55;21.40;54.80
14893;DHT22;7538;53.626;9.906;2023-04-03T06:51:24;21.80;52.20
14893;DHT22;7538;53.626;9.906;2023-04-03T06:53:53;22.30;50.40
14893;DHT22;7538;53.626;9.906;2023-04-03T06:56:20;22.60;48.40
14893;DHT22;7538;53.626;9.906;2023-04-03T06:58:49;22.80;48.10
14893;DHT22;7538;53.626;9.906;2023-04-03T07:01:17;23.00;47.10
14893;DHT22;7538;53.626;9.906;2023-04-03T07:03:47;23.20;46.60
14893;DHT22;7538;53.626;9.906;2023-04-03T07:06:16;23.50;46.20
14893;DHT22;7538;53.626;9.906;2023-04-03T07:08:44;23.60;45.40
14893;DHT22;7538;53.626;9.906;2023-04-03T07:11:12;23.80;43.30
14893;DHT22;7538;53.626;9.906;2023-04-03T07:13:39;24.10;41.60
14893;DHT22;7538;53.626;9.906;2023-04-03T07:16:08;24.50;40.00
14893;DHT22;7538;53.626;9.906;2023-04-03T07:18:35;24.80;39.00
14893;DHT22;7538;53.626;9.906;2023-04-03T07:21:02;24.90;38.40
14893;DHT22;7538;53.626;9.906;2023-04-03T07:23:29;25.00;37.30
14893;DHT22;7538;53.626;9.906;2023-04-03T07:25:56;25.30;37.20
14893;DHT22;7538;53.626;9.906;2023-04-03T07:28:22;25.70;36.50
14893;DHT22;7538;53.626;9.906;2023-04-03T07:30:51;26.20;35.30
14893;DHT22;7538;53.626;9.906;2023-04-03T07:33:21;26.60;34.80
14893;DHT22;7538;53.626;9.906;2023-04-03T07:35:48;26.90;33.50
14893;DHT22;7538;53.626;9.906;2023-04-03T07:38:15;26.90;32.30
14893;DHT22;7538;53.626;9.906;2023-04-03T07:40:46;27.00;32.30
14893;DHT22;7538;53.626;9.906;2023-04-03T07:43:13;27.20;31.80
14893;DHT22;7538;53.626;9.906;2023-04-03T07:45:40;27.40;30.70
14893;DHT22;7538;53.626;9.906;2023-04-03T07:48:07;27.50;30.30
14893;DHT22;7538;53.626;9.906;2023-04-03T07:50:35;27.60;30.20
14893;DHT22;7538;53.626;9.906;2023-04-03T07:53:02;27.50;30.10
14893;DHT22;7538;53.626;9.906;2023-04-03T07:55:29;27.20;29.50
14893;DHT22;7538;53.626;9.906;2023-04-03T07:57:56;26.30;29.50
14893;DHT22;7538;53.626;9.906;2023-04-03T08:00:23;26.10;30.40
14893;DHT22;7538;53.626;9.906;2023-04-03T08:02:50;25.60;30.00
14893;DHT22;7538;53.626;9.906;2023-04-03T08:05:17;24.80;30.50
14893;DHT22;7538;53.626;9.906;2023-04-03T08:07:46;23.60;31.60
14893;DHT22;7538;53.626;9.906;2023-04-03T08:10:13;22.10;32.70
14893;DHT22;7538;53.626;9.906;2023-04-03T08:12:41;21.80;34.40
14893;DHT22;7538;53.626;9.906;2023-04-03T08:15:08;22.10;34.40
14893;DHT22;7538;53.626;9.906;2023-04-03T08:17:36;22.40;34.10
14893;DHT22;7538;53.626;9.906;2023-04-03T08:20:04;22.70;34.10
14893;DHT22;7538;53.626;9.906;2023-04-03T08:22:32;23.30;33.00
14893;DHT22;7538;53.626;9.906;2023-04-03T08:25:00;23.80;33.00
14893;DHT22;7538;53.626;9.906;2023-04-03T08:27:27;24.20;32.00
14893;DHT22;7538;53.626;9.906;2023-04-03T08:29:54;24.60;31.20
14893;DHT22;7538;53.626;9.906;2023-04-03T08:32:21;25.00;30.00
14893;DHT22;7538;53.626;9.906;2023-04-03T08:34:48;25.00;30.10
14893;DHT22;7538;53.626;9.906;2023-04-03T08:37:15;25.30;29.50
14893;DHT22;7538;53.626;9.906;2023-04-03T08:39:43;25.70;29.30
14893;DHT22;7538;53.626;9.906;2023-04-03T08:42:16;26.50;29.60
14893;DHT22;7538;53.626;9.906;2023-04-03T08:44:49;25.70;27.70
14893;DHT22;7538;53.626;9.906;2023-04-03T08:47:23;24.60;28.50
14893;DHT22;7538;53.626;9.906;2023-04-03T08:49:53;23.90;29.00
14893;DHT22;7538;53.626;9.906;2023-04-03T08:52:27;23.50;29.60
14893;DHT22;7538;53.626;9.906;2023-04-03T08:54:56;23.30;28.80
14893;DHT22;7538;53.626;9.906;2023-04-03T08:57:29;22.80;29.90
14893;DHT22;7538;53.626;9.906;2023-04-03T08:59:59;23.10;29.80
14893;DHT22;7538;53.626;9.906;2023-04-03T09:02:31;24.00;29.80
14893;DHT22;7538;53.626;9.906;2023-04-03T09:04:59;25.30;29.10
14893;DHT22;7538;53.626;9.906;2023-04-03T09:07:35;26.50;28.20
14893;DHT22;7538;53.626;9.906;2023-04-03T09:10:06;26.80;28.00
14893;DHT22;7538;53.626;9.906;2023-04-03T09:12:39;26.80;27.00
14893;DHT22;7538;53.626;9.906;2023-04-03T09:15:16;27.10;27.00
14893;DHT22;7538;53.626;9.906;2023-04-03T09:17:53;27.00;26.80
14893;DHT22;7538;53.626;9.906;2023-04-03T09:20:26;26.80;25.90
14893;DHT22;7538;53.626;9.906;2023-04-03T09:22:55;26.80;26.10
14893;DHT22;7538;53.626;9.906;2023-04-03T09:25:23;27.10;25.50
14893;DHT22;7538;53.626;9.906;2023-04-03T09:27:53;26.30;24.80
14893;DHT22;7538;53.626;9.906;2023-04-03T09:30:22;25.60;25.90
14893;DHT22;7538;53.626;9.906;2023-04-03T09:32:51;24.30;26.60
14893;DHT22;7538;53.626;9.906;2023-04-03T09:35:21;26.50;28.90
14893;DHT22;7538;53.626;9.906;2023-04-03T09:37:51;25.00;27.60
14893;DHT22;7538;53.626;9.906;2023-04-03T09:40:33;24.90;27.30
14893;DHT22;7538;53.626;9.906;2023-04-03T09:45:45;22.30;27.80
14893;DHT22;7538;53.626;9.906;2023-04-03T09:48:17;21.80;28.50
14893;DHT22;7538;53.626;9.906;2023-04-03T09:50:59;22.10;29.00
14893;DHT22;7538;53.626;9.906;2023-04-03T09:53:33;22.30;27.70
14893;DHT22;7538;53.626;9.906;2023-04-03T09:56:03;21.10;28.10
14893;DHT22;7538;53.626;9.906;2023-04-03T09:58:34;20.20;29.40
14893;DHT22;7538;53.626;9.906;2023-04-03T10:01:04;19.50;29.90
14893;DHT22;7538;53.626;9.906;2023-04-03T10:03:33;19.30;30.80
14893;DHT22;7538;53.626;9.906;2023-04-03T10:06:02;19.50;30.50
14893;DHT22;7538;53.626;9.906;2023-04-03T10:08:31;20.10;30.30
14893;DHT22;7538;53.626;9.906;2023-04-03T10:11:10;20.90;30.30
14893;DHT22;7538;53.626;9.906;2023-04-03T10:13:51;21.50;28.60
14893;DHT22;7538;53.626;9.906;2023-04-03T10:16:20;21.70;28.50
14893;DHT22;7538;53.626;9.906;2023-04-03T10:18:56;22.20;28.70
14893;DHT22;7538;53.626;9.906;2023-04-03T10:21:33;22.70;28.60
14893;DHT22;7538;53.626;9.906;2023-04-03T10:24:08;22.90;28.20
14893;DHT22;7538;53.626;9.906;2023-04-03T10:26:42;22.00;27.60
14893;DHT22;7538;53.626;9.906;2023-04-03T10:29:19;21.40;28.50
14893;DHT22;7538;53.626;9.906;2023-04-03T10:31:53;20.90;29.10
14893;DHT22;7538;53.626;9.906;2023-04-03T10:34:25;21.30;28.90
14893;DHT22;7538;53.626;9.906;2023-04-03T10:37:01;21.60;30.30
14893;DHT22;7538;53.626;9.906;2023-04-03T10:39:39;22.20;29.10
14893;DHT22;7538;53.626;9.906;2023-04-03T10:42:13;22.70;29.30
14893;DHT22;7538;53.626;9.906;2023-04-03T10:44:57;23.00;27.20
14893;DHT22;7538;53.626;9.906;2023-04-03T10:47:32;22.70;27.20
14893;DHT22;7538;53.626;9.906;2023-04-03T10:50:07;21.90;28.00
14893;DHT22;7538;53.626;9.906;2023-04-03T10:52:42;20.80;29.00
14893;DHT22;7538;53.626;9.906;2023-04-03T10:55:21;19.70;30.70
14893;DHT22;7538;53.626;9.906;2023-04-03T10:57:51;18.60;31.50
14893;DHT22;7538;53.626;9.906;2023-04-03T11:00:26;18.20;32.90
14893;DHT22;7538;53.626;9.906;2023-04-03T11:02:57;17.50;33.30
14893;DHT22;7538;53.626;9.906;2023-04-03T11:05:30;16.90;33.50
14893;DHT22;7538;53.626;9.906;2023-04-03T11:08:02;16.70;34.90
14893;DHT22;7538;53.626;9.906;2023-04-03T11:10:37;16.40;34.90
14893;DHT22;7538;53.626;9.906;2023-04-03T11:13:11;16.00;35.80
14893;DHT22;7538;53.626;9.906;2023-04-03T11:15:41;16.20;36.10
14893;DHT22;7538;53.626;9.906;2023-04-03T11:18:12;15.50;36.50
14893;DHT22;7538;53.626;9.906;2023-04-03T11:20:44;15.30;36.60
14893;DHT22;7538;53.626;9.906;2023-04-03T11:23:19;15.80;37.30
14893;DHT22;7538;53.626;9.906;2023-04-03T11:25:51;16.60;36.90
14893;DHT22;7538;53.626;9.906;2023-04-03T11:28:18;17.00;35.20
14893;DHT22;7538;53.626;9.906;2023-04-03T11:30:49;16.90;34.30
14893;DHT22;7538;53.626;9.906;2023-04-03T11:33:28;16.50;35.10
14893;DHT22;7538;53.626;9.906;2023-04-03T11:36:00;16.00;35.70
14893;DHT22;7538;53.626;9.906;2023-04-03T11:38:31;15.70;36.10
14893;DHT22;7538;53.626;9.906;2023-04-03T11:41:02;15.40;36.30
14893;DHT22;7538;53.626;9.906;2023-04-03T11:43:31;15.00;36.20
14893;DHT22;7538;53.626;9.906;2023-04-03T11:46:00;14.50;37.20
14893;DHT22;7538;53.626;9.906;2023-04-03T11:48:49;14.20;37.90
14893;DHT22;7538;53.626;9.906;2023-04-03T11:51:41;14.10;37.90
14893;DHT22;7538;53.626;9.906;2023-04-03T11:54:35;13.70;36.50
14893;DHT22;7538;53.626;9.906;2023-04-03T11:57:28;13.00;37.70
14893;DHT22;7538;53.626;9.906;2023-04-03T12:00:47;13.00;39.20
14893;DHT22;7538;53.626;9.906;2023-04-03T12:04:07;12.80;41.40
14893;DHT22;7538;53.626;9.906;2023-04-03T12:10:00;12.50;40.80
14893;DHT22;7538;53.626;9.906;2023-04-03T12:12:31;12.40;40.70
14893;DHT22;7538;53.626;9.906;2023-04-03T12:15:19;12.10;41.10
14893;DHT22;7538;53.626;9.906;2023-04-03T12:17:47;11.90;41.40
14893;DHT22;7538;53.626;9.906;2023-04-03T12:23:30;11.70;41.40
14893;DHT22;7538;53.626;9.906;2023-04-03T12:26:18;11.80;41.70
14893;DHT22;7538;53.626;9.906;2023-04-03T12:28:48;11.70;42.50
14893;DHT22;7538;53.626;9.906;2023-04-03T12:31:18;11.60;42.90
14893;DHT22;7538;53.626;9.906;2023-04-03T12:34:02;11.20;42.90
14893;DHT22;7538;53.626;9.906;2023-04-03T12:36:39;11.00;43.40
14893;DHT22;7538;53.626;9.906;2023-04-03T12:42:31;10.80;42.90
14893;DHT22;7538;53.626;9.906;2023-04-03T12:45:02;11.10;43.10
14893;DHT22;7538;53.626;9.906;2023-04-03T12:47:36;11.30;42.60
14893;DHT22;7538;53.626;9.906;2023-04-03T12:50:17;11.40;43.80
14893;DHT22;7538;53.626;9.906;2023-04-03T12:52:50;11.50;43.60
14893;DHT22;7538;53.626;9.906;2023-04-03T12:55:20;11.10;41.70
14893;DHT22;7538;53.626;9.906;2023-04-03T12:57:47;10.90;42.80
14893;DHT22;7538;53.626;9.906;2023-04-03T13:00:35;10.70;42.50
14893;DHT22;7538;53.626;9.906;2023-04-03T13:03:06;10.50;42.30
14893;DHT22;7538;53.626;9.906;2023-04-03T13:05:44;10.60;42.40
14893;DHT22;7538;53.626;9.906;2023-04-03T13:08:13;10.80;42.20
14893;DHT22;7538;53.626;9.906;2023-04-03T13:10:51;10.70;42.80
14893;DHT22;7538;53.626;9.906;2023-04-03T13:13:18;10.70;43.00
14893;DHT22;7538;53.626;9.906;2023-04-03T13:15:47;10.60;43.50
14893;DHT22;7538;53.626;9.906;2023-04-03T13:18:28;10.50;43.40
14893;DHT22;7538;53.626;9.906;2023-04-03T13:20:59;10.30;43.30
14893;DHT22;7538;53.626;9.906;2023-04-03T13:23:27;10.30;43.00
14893;DHT22;7538;53.626;9.906;2023-04-03T13:25:56;10.30;42.20
14893;DHT22;7538;53.626;9.906;2023-04-03T13:28:26;10.30;42.40
14893;DHT22;7538;53.626;9.906;2023-04-03T13:31:04;10.30;42.90
14893;DHT22;7538;53.626;9.906;2023-04-03T13:33:34;10.00;44.30
14893;DHT22;7538;53.626;9.906;2023-04-03T13:36:05;10.10;44.50
14893;DHT22;7538;53.626;9.906;2023-04-03T13:38:33;10.00;44.10
14893;DHT22;7538;53.626;9.906;2023-04-03T13:41:05;9.90;43.70
14893;DHT22;7538;53.626;9.906;2023-04-03T13:43:47;9.90;43.50
14893;DHT22;7538;53.626;9.906;2023-04-03T13:46:24;9.90;44.10
14893;DHT22;7538;53.626;9.906;2023-04-03T13:48:53;9.90;44.30
14893;DHT22;7538;53.626;9.906;2023-04-03T13:51:22;10.00;44.10
14893;DHT22;7538;53.626;9.906;2023-04-03T13:53:52;10.10;43.70
14893;DHT22;7538;53.626;9.906;2023-04-03T13:56:33;10.30;43.70
14893;DHT22;7538;53.626;9.906;2023-04-03T13:59:22;10.30;43.20
14893;DHT22;7538;53.626;9.906;2023-04-03T14:01:54;10.40;42.90
14893;DHT22;7538;53.626;9.906;2023-04-03T14:04:23;10.30;43.60
14893;DHT22;7538;53.626;9.906;2023-04-03T14:06:50;10.20;44.30
14893;DHT22;7538;53.626;9.906;2023-04-03T14:09:18;10.30;44.90
14893;DHT22;7538;53.626;9.906;2023-04-03T14:11:49;10.30;45.50
14893;DHT22;7538;53.626;9.906;2023-04-03T14:14:19;10.40;44.70
14893;DHT22;7538;53.626;9.906;2023-04-03T14:16:51;10.20;43.90
14893;DHT22;7538;53.626;9.906;2023-04-03T14:19:21;10.10;44.30
14893;DHT22;7538;53.626;9.906;2023-04-03T14:21:48;9.90;45.70
14893;DHT22;7538;53.626;9.906;2023-04-03T14:24:16;10.00;45.80
14893;DHT22;7538;53.626;9.906;2023-04-03T14:26:45;10.10;45.50
14893;DHT22;7538;53.626;9.906;2023-04-03T14:29:14;10.20;45.30
14893;DHT22;7538;53.626;9.906;2023-04-03T14:31:42;10.30;45.20
14893;DHT22;7538;53.626;9.906;2023-04-03T14:34:10;10.40;44.90
14893;DHT22;7538;53.626;9.906;2023-04-03T14:36:37;10.30;45.00
14893;DHT22;7538;53.626;9.906;2023-04-03T14:39:06;9.90;44.70
14893;DHT22;7538;53.626;9.906;2023-04-03T14:41:34;9.70;45.30
14893;DHT22;7538;53.626;9.906;2023-04-03T14:44:02;9.70;46.30
14893;DHT22;7538;53.626;9.906;2023-04-03T14:46:33;9.70;47.40
14893;DHT22;7538;53.626;9.906;2023-04-03T14:49:02;9.70;47.80
14893;DHT22;7538;53.626;9.906;2023-04-03T14:51:33;9.70;47.60
14893;DHT22;7538;53.626;9.906;2023-04-03T14:54:00;9.70;48.10
14893;DHT22;7538;53.626;9.906;2023-04-03T14:56:28;9.80;47.80
14893;DHT22;7538;53.626;9.906;2023-04-03T14:58:57;9.90;46.80
14893;DHT22;7538;53.626;9.906;2023-04-03T15:01:24;9.90;47.00
14893;DHT22;7538;53.626;9.906;2023-04-03T15:03:52;9.80;47.60
14893;DHT22;7538;53.626;9.906;2023-04-03T15:06:19;9.70;48.10
14893;DHT22;7538;53.626;9.906;2023-04-03T15:08:47;9.60;47.40
14893;DHT22;7538;53.626;9.906;2023-04-03T15:11:14;9.50;47.20
14893;DHT22;7538;53.626;9.906;2023-04-03T15:13:41;9.60;48.00
14893;DHT22;7538;53.626;9.906;2023-04-03T15:16:14;9.60;48.70
14893;DHT22;7538;53.626;9.906;2023-04-03T15:18:42;9.60;49.30
14893;DHT22;7538;53.626;9.906;2023-04-03T15:21:10;9.80;49.40
14893;DHT22;7538;53.626;9.906;2023-04-03T15:23:37;10.00;49.40
14893;DHT22;7538;53.626;9.906;2023-04-03T15:26:04;10.10;48.60
14893;DHT22;7538;53.626;9.906;2023-04-03T15:28:33;10.30;48.70
14893;DHT22;7538;53.626;9.906;2023-04-03T15:31:01;10.40;48.30
14893;DHT22;7538;53.626;9.906;2023-04-03T15:33:28;10.20;48.50
14893;DHT22;7538;53.626;9.906;2023-04-03T15:35:55;10.10;48.80
14893;DHT22;7538;53.626;9.906;2023-04-03T15:38:23;9.90;49.50
14893;DHT22;7538;53.626;9.906;2023-04-03T15:40:50;9.60;50.90
14893;DHT22;7538;53.626;9.906;2023-04-03T15:43:17;9.50;50.70
14893;DHT22;7538;53.626;9.906;2023-04-03T15:45:44;9.10;51.60
14893;DHT22;7538;53.626;9.906;2023-04-03T15:48:12;8.90;52.60
14893;DHT22;7538;53.626;9.906;2023-04-03T15:50:39;8.90;53.30
14893;DHT22;7538;53.626;9.906;2023-04-03T15:53:07;8.90;53.60
14893;DHT22;7538;53.626;9.906;2023-04-03T15:55:37;8.80;53.50
14893;DHT22;7538;53.626;9.906;2023-04-03T15:58:04;8.70;53.20
14893;DHT22;7538;53.626;9.906;2023-04-03T16:00:31;8.60;53.60
14893;DHT22;7538;53.626;9.906;2023-04-03T16:03:00;8.50;53.90
14893;DHT22;7538;53.626;9.906;2023-04-03T16:05:29;8.70;54.40
14893;DHT22;7538;53.626;9.906;2023-04-03T16:07:57;8.70;54.60
14893;DHT22;7538;53.626;9.906;2023-04-03T16:10:24;8.80;54.50
14893;DHT22;7538;53.626;9.906;2023-04-03T16:12:52;8.80;55.20
14893;DHT22;7538;53.626;9.906;2023-04-03T16:15:19;8.90;55.00
14893;DHT22;7538;53.626;9.906;2023-04-03T16:17:46;8.80;55.00
14893;DHT22;7538;53.626;9.906;2023-04-03T16:20:14;8.70;55.70
14893;DHT22;7538;53.626;9.906;2023-04-03T16:22:42;8.60;55.10